Time;durP1;ratioP1;P1;durP2;ratioP2;P2;SDS_P1;SDS_P2;PMS_P1;PMS_P2;Temp;Humidity;BMP_temperature;BMP_pressure;BME280_temperature;BME280_humidity;BME280_pressure;Samples;Min_cycle;Max_cycle;Signal;HPM_P1;HPM_P2
2022/07/28 00:02:16;;;;;;;2.80;2.03;;;22.60;62.20;;;;;;5013697;28;20499;-64
2022/07/28 00:04:42;;;;;;;3.30;2.10;;;22.60;61.00;;;;;;5008482;28;20206;-64
2022/07/28 00:07:08;;;;;;;5.70;2.40;;;22.60;61.70;;;;;;5009870;28;20290;-64
2022/07/28 00:09:34;;;;;;;3.93;2.57;;;22.70;60.80;;;;;;5013922;28;20430;-64
2022/07/28 00:11:59;;;;;;;2.43;1.80;;;22.60;61.00;;;;;;5013704;28;20183;-64
2022/07/28 00:14:25;;;;;;;2.30;2.20;;;22.60;62.00;;;;;;4996129;28;20206;-64
2022/07/28 00:16:51;;;;;;;4.00;2.50;;;22.60;61.70;;;;;;5011294;28;20261;-64
2022/07/28 00:19:17;;;;;;;3.15;2.30;;;22.60;61.90;;;;;;5008184;28;20976;-64
2022/07/28 00:21:43;;;;;;;4.63;1.77;;;22.70;61.40;;;;;;4995102;28;20198;-64
2022/07/28 00:24:08;;;;;;;4.53;2.60;;;22.70;61.60;;;;;;5013747;28;20190;-64
2022/07/28 00:26:34;;;;;;;4.40;1.90;;;22.80;60.70;;;;;;5013111;28;20450;-64
2022/07/28 00:29:00;;;;;;;1.97;1.80;;;22.70;61.10;;;;;;5010989;28;20310;-64
2022/07/28 00:31:25;;;;;;;6.30;2.30;;;22.70;60.30;;;;;;5013504;28;20242;-64
2022/07/28 00:33:51;;;;;;;2.50;2.30;;;22.70;60.80;;;;;;5013377;28;20658;-64
2022/07/28 00:36:17;;;;;;;2.43;2.23;;;22.60;60.80;;;;;;5011036;28;20273;-64
2022/07/28 00:38:42;;;;;;;3.63;2.33;;;22.60;61.50;;;;;;5012341;28;20707;-64
2022/07/28 00:41:10;;;;;;;4.00;2.43;;;22.60;61.40;;;;;;5012634;28;20219;-64
2022/07/28 00:43:44;;;;;;;3.38;1.90;;;22.60;60.50;;;;;;5012751;28;20188;-64
2022/07/28 00:46:11;;;;;;;2.55;2.35;;;22.40;61.30;;;;;;5010448;28;20195;-64
2022/07/28 00:48:42;;;;;;;6.07;2.22;;;22.30;61.80;;;;;;5013069;28;20229;-64
2022/07/28 00:51:08;;;;;;;2.33;2.13;;;22.10;61.90;;;;;;5007964;28;20218;-64
2022/07/28 00:53:34;;;;;;;2.30;2.10;;;22.00;62.60;;;;;;5010090;28;20179;-64
2022/07/28 00:56:00;;;;;;;2.28;2.08;;;22.20;62.70;;;;;;5012560;28;20513;-64
2022/07/28 00:58:26;;;;;;;4.53;2.63;;;22.20;62.60;;;;;;4994099;28;20699;-64
2022/07/28 01:00:52;;;;;;;2.97;2.40;;;22.30;63.00;;;;;;5007990;28;20183;-64
2022/07/28 01:03:19;;;;;;;4.50;2.10;;;22.20;63.10;;;;;;4995316;28;20524;-64
2022/07/28 01:06:03;;;;;;;4.80;2.37;;;22.30;63.00;;;;;;5008066;28;20453;-64
2022/07/28 01:08:52;;;;;;;2.53;2.17;;;22.40;62.40;;;;;;5011290;28;20544;-64
2022/07/28 01:11:30;;;;;;;3.60;2.30;;;22.40;61.90;;;;;;5008963;28;20238;-64
2022/07/28 01:14:19;;;;;;;2.90;2.10;;;22.30;61.90;;;;;;5010536;28;20477;-64
2022/07/28 01:16:53;;;;;;;2.80;2.25;;;22.20;61.90;;;;;;5010728;28;20990;-64
2022/07/28 01:19:45;;;;;;;2.65;2.40;;;22.10;63.00;;;;;;5010987;28;20609;-64
2022/07/28 01:22:19;;;;;;;3.85;2.10;;;21.70;63.70;;;;;;5005134;28;20183;-64
2022/07/28 01:25:06;;;;;;;2.63;2.00;;;21.60;64.20;;;;;;5010452;28;20189;-64
2022/07/28 01:27:51;;;;;;;4.70;2.40;;;21.30;64.40;;;;;;5012066;28;20207;-64
2022/07/28 01:30:20;;;;;;;3.42;2.25;;;21.10;66.00;;;;;;5001999;28;20237;-64
2022/07/28 01:32:59;;;;;;;4.03;2.10;;;20.90;66.10;;;;;;5012197;28;20178;-64
2022/07/28 01:35:29;;;;;;;3.05;2.75;;;20.20;66.00;;;;;;5010205;28;21043;-64
2022/07/28 01:37:58;;;;;;;3.00;2.20;;;20.60;67.30;;;;;;5011007;28;20238;-65
2022/07/28 01:40:28;;;;;;;2.10;2.00;;;20.40;67.80;;;;;;5010986;28;20183;-64
2022/07/28 01:42:57;;;;;;;3.55;2.60;;;20.40;68.40;;;;;;5011735;28;20194;-65
2022/07/28 01:45:24;;;;;;;3.60;2.35;;;20.20;69.00;;;;;;5009992;28;20191;-65
2022/07/28 01:47:53;;;;;;;6.13;2.72;;;20.10;70.10;;;;;;5010673;28;20238;-64
2022/07/28 01:50:21;;;;;;;3.20;1.98;;;20.10;70.30;;;;;;5009650;28;20199;-65
2022/07/28 01:52:48;;;;;;;2.38;2.17;;;20.00;71.40;;;;;;5012409;28;20187;-65
2022/07/28 01:55:17;;;;;;;4.20;2.05;;;20.00;71.10;;;;;;5011900;28;20183;-64
2022/07/28 01:57:45;;;;;;;3.25;2.70;;;19.90;71.70;;;;;;5009955;28;20246;-65
2022/07/28 02:00:12;;;;;;;2.67;2.47;;;19.60;72.70;;;;;;5009235;28;20270;-64
2022/07/28 02:02:41;;;;;;;2.88;2.60;;;19.40;73.50;;;;;;5007069;28;20236;-65
2022/07/28 02:05:09;;;;;;;3.78;2.15;;;19.30;74.80;;;;;;5009985;28;20220;-65
2022/07/28 02:07:38;;;;;;;3.15;2.15;;;19.20;75.50;;;;;;5007760;28;20195;-65
2022/07/28 02:10:05;;;;;;;4.78;2.70;;;18.60;77.20;;;;;;5011020;28;20209;-65
2022/07/28 02:12:34;;;;;;;2.42;2.22;;;19.00;78.50;;;;;;5011466;28;20294;-64
2022/07/28 02:15:02;;;;;;;4.38;2.25;;;18.90;78.20;;;;;;5006388;28;20233;-64
2022/07/28 02:17:30;;;;;;;3.08;2.30;;;18.90;79.60;;;;;;5007608;28;20215;-65
2022/07/28 02:19:57;;;;;;;5.50;2.70;;;18.90;80.60;;;;;;5009949;28;20196;-64
2022/07/28 02:22:24;;;;;;;2.60;2.40;;;18.80;81.10;;;;;;5005673;28;20725;-65
2022/07/28 02:24:51;;;;;;;2.67;2.20;;;18.70;82.00;;;;;;5011501;28;20199;-64
2022/07/28 02:27:32;;;;;;;4.00;2.80;;;18.70;82.40;;;;;;5010520;28;20209;-64
2022/07/28 02:30:08;;;;;;;2.25;2.05;;;18.50;83.20;;;;;;5007097;28;20209;-65
2022/07/28 02:32:40;;;;;;;2.60;2.42;;;18.50;84.50;;;;;;5008823;28;20182;-65
2022/07/28 02:35:14;;;;;;;2.97;2.30;;;18.50;86.10;;;;;;5007725;28;20171;-65
2022/07/28 02:37:46;;;;;;;3.45;2.38;;;18.50;85.70;;;;;;5009797;28;20202;-65
2022/07/28 02:40:15;;;;;;;2.63;2.42;;;18.40;85.60;;;;;;5010362;28;20183;-64
2022/07/28 02:42:45;;;;;;;2.80;2.60;;;18.30;86.00;;;;;;5010767;28;20626;-64
2022/07/28 02:45:14;;;;;;;3.55;2.40;;;18.40;86.40;;;;;;5009792;28;20277;-64
2022/07/28 02:47:47;;;;;;;2.85;2.42;;;18.20;86.80;;;;;;5005913;28;20607;-64
2022/07/28 02:50:15;;;;;;;4.82;3.05;;;18.20;86.30;;;;;;5009226;28;20713;-65
2022/07/28 02:52:42;;;;;;;8.10;3.08;;;18.30;86.70;;;;;;5011579;28;20663;-64
2022/07/28 02:55:11;;;;;;;6.75;2.65;;;18.30;86.40;;;;;;5010945;28;20179;-64
2022/07/28 02:57:40;;;;;;;3.28;2.53;;;18.20;86.40;;;;;;5006255;28;20195;-64
2022/07/28 03:00:06;;;;;;;6.15;2.70;;;18.20;86.40;;;;;;5006263;28;20191;-64
2022/07/28 03:02:35;;;;;;;2.50;2.30;;;18.20;87.00;;;;;;5010497;28;20188;-64
2022/07/28 03:05:02;;;;;;;4.43;2.55;;;18.10;86.90;;;;;;4991597;28;20285;-65
2022/07/28 03:07:30;;;;;;;6.15;4.18;;;18.10;87.00;;;;;;5006417;28;20207;-65
2022/07/28 03:09:56;;;;;;;2.85;2.65;;;18.10;86.90;;;;;;5010729;28;20302;-65
2022/07/28 03:12:22;;;;;;;4.40;2.88;;;18.30;87.50;;;;;;5010472;28;20597;-65
2022/07/28 03:14:48;;;;;;;4.07;2.60;;;18.10;87.30;;;;;;5008943;28;20274;-64
2022/07/28 03:17:14;;;;;;;3.73;2.50;;;18.10;87.40;;;;;;5008935;28;20870;-65
2022/07/28 03:19:40;;;;;;;2.80;2.50;;;18.00;87.30;;;;;;5009053;28;20189;-64
2022/07/28 03:22:06;;;;;;;2.63;2.20;;;18.10;87.20;;;;;;4987196;28;20442;-64
2022/07/28 03:24:36;;;;;;;2.78;2.40;;;18.30;87.50;;;;;;5010661;28;20190;-64
2022/07/28 03:27:07;;;;;;;2.88;2.30;;;18.30;87.30;;;;;;5002674;28;20202;-65
2022/07/28 03:29:34;;;;;;;2.33;2.20;;;18.50;86.80;;;;;;5007414;28;20210;-64
2022/07/28 03:32:00;;;;;;;4.40;2.40;;;18.60;83.10;;;;;;5010329;28;20682;-65
2022/07/28 03:34:27;;;;;;;10.33;2.40;;;18.70;84.40;;;;;;5010395;28;20205;-65
2022/07/28 03:37:11;;;;;;;3.25;2.40;;;19.10;83.90;;;;;;5005820;28;20511;-64
2022/07/28 03:39:44;;;;;;;2.63;2.42;;;19.40;80.80;;;;;;5009303;28;20663;-65
2022/07/28 03:42:10;;;;;;;3.50;3.00;;;19.50;80.90;;;;;;5009575;28;20183;-65
2022/07/28 03:44:38;;;;;;;3.92;2.13;;;19.70;79.20;;;;;;5010724;28;20182;-65
2022/07/28 03:47:04;;;;;;;4.50;2.50;;;19.90;78.80;;;;;;5010462;28;20203;-65
2022/07/28 03:49:30;;;;;;;4.18;2.40;;;20.10;77.80;;;;;;5009829;28;20203;-65
2022/07/28 03:51:56;;;;;;;4.43;2.30;;;20.30;76.50;;;;;;5009928;28;20276;-65
2022/07/28 03:54:21;;;;;;;3.07;2.63;;;20.30;76.30;;;;;;5010395;28;20215;-65
2022/07/28 03:56:47;;;;;;;3.43;2.53;;;20.50;75.70;;;;;;5009463;28;20213;-65
2022/07/28 03:59:13;;;;;;;2.30;2.10;;;20.40;74.70;;;;;;5003648;28;20587;-65
2022/07/28 04:01:39;;;;;;;2.73;2.53;;;20.40;76.40;;;;;;5011648;28;20193;-64
2022/07/28 04:04:04;;;;;;;3.80;2.27;;;20.30;74.90;;;;;;5007980;28;20179;-64
2022/07/28 04:06:30;;;;;;;4.70;2.30;;;20.40;76.10;;;;;;5008100;28;20555;-65
2022/07/28 04:08:56;;;;;;;2.03;1.90;;;20.60;75.30;;;;;;5012616;28;20182;-64
2022/07/28 04:11:22;;;;;;;3.30;2.57;;;20.80;75.10;;;;;;5010340;28;20297;-65
2022/07/28 04:13:47;;;;;;;2.20;2.00;;;20.90;73.90;;;;;;5014028;28;20262;-72
2022/07/28 04:16:13;;;;;;;2.90;2.70;;;20.80;73.80;;;;;;5009901;28;20265;-72
2022/07/28 04:18:39;;;;;;;6.00;2.67;;;20.60;73.70;;;;;;5015323;28;20229;-72
2022/07/28 04:21:04;;;;;;;5.93;5.33;;;20.40;74.30;;;;;;5000311;28;20183;-72
2022/07/28 04:23:31;;;;;;;4.90;3.87;;;20.20;74.70;;;;;;5017960;28;20190;-73
2022/07/28 04:25:56;;;;;;;3.65;3.20;;;20.00;75.70;;;;;;5012029;28;20523;-74
2022/07/28 04:28:23;;;;;;;6.77;2.60;;;20.10;76.30;;;;;;5015827;28;20209;-71
2022/07/28 04:30:49;;;;;;;4.03;3.33;;;19.70;77.00;;;;;;5009291;28;20242;-70
2022/07/28 04:33:14;;;;;;;3.53;3.10;;;19.40;78.10;;;;;;5020717;28;20187;-71
2022/07/28 04:35:40;;;;;;;4.47;2.43;;;19.40;78.40;;;;;;5021414;28;20597;-70
2022/07/28 04:38:06;;;;;;;4.20;2.43;;;19.40;78.00;;;;;;5011443;28;20206;-71
2022/07/28 04:40:33;;;;;;;4.63;2.97;;;19.20;77.90;;;;;;5012364;28;20206;-70
2022/07/28 04:42:59;;;;;;;4.15;2.33;;;19.10;78.60;;;;;;5012551;28;20214;-70
2022/07/28 04:45:25;;;;;;;3.80;3.00;;;19.10;78.90;;;;;;5012677;28;20227;-70
2022/07/28 04:47:50;;;;;;;4.50;2.50;;;19.00;79.20;;;;;;5011987;28;20273;-71
2022/07/28 04:50:19;;;;;;;5.10;3.03;;;18.90;79.50;;;;;;5009559;28;20207;-70
2022/07/28 04:52:48;;;;;;;5.63;3.00;;;19.00;80.50;;;;;;5004312;28;20648;-72
2022/07/28 04:55:14;;;;;;;5.35;3.03;;;19.00;80.40;;;;;;5012354;28;20182;-72
2022/07/28 04:57:40;;;;;;;3.92;3.00;;;19.10;81.10;;;;;;5011774;28;20198;-72
2022/07/28 05:00:15;;;;;;;4.67;2.40;;;19.10;80.70;;;;;;4999992;28;20206;-72
2022/07/28 05:02:43;;;;;;;3.72;2.80;;;19.20;80.30;;;;;;5011929;28;20682;-72
2022/07/28 05:05:09;;;;;;;4.13;2.72;;;19.20;80.20;;;;;;5009899;28;20186;-71
2022/07/28 05:07:35;;;;;;;4.20;2.85;;;19.20;81.40;;;;;;5005367;28;20214;-74
2022/07/28 05:10:01;;;;;;;4.38;3.10;;;19.30;80.00;;;;;;5012183;28;20268;-74
2022/07/28 05:12:27;;;;;;;3.22;3.03;;;19.30;80.00;;;;;;4994041;28;20657;-71
2022/07/28 05:14:53;;;;;;;7.77;3.33;;;19.70;81.50;;;;;;4990096;28;20264;-71
2022/07/28 05:17:18;;;;;;;4.50;3.10;;;19.30;82.20;;;;;;5011678;28;20199;-70
2022/07/28 05:19:44;;;;;;;5.93;3.20;;;19.30;82.30;;;;;;5011537;28;20175;-72
2022/07/28 05:22:09;;;;;;;3.40;2.47;;;19.40;81.00;;;;;;5011292;28;20191;-71
2022/07/28 05:24:35;;;;;;;3.37;2.70;;;19.40;81.20;;;;;;5011740;28;20288;-71
2022/07/28 05:27:01;;;;;;;3.80;2.90;;;19.50;81.30;;;;;;4992641;28;20198;-72
2022/07/28 05:29:26;;;;;;;6.10;3.40;;;19.50;80.90;;;;;;5008341;28;20222;-71
2022/07/28 05:31:52;;;;;;;3.70;3.40;;;19.60;80.70;;;;;;5009486;28;20281;-72
2022/07/28 05:34:17;;;;;;;5.30;3.53;;;19.70;80.00;;;;;;5010339;28;20175;-71
2022/07/28 05:36:43;;;;;;;3.47;3.00;;;19.80;79.70;;;;;;5009470;28;20209;-72
2022/07/28 05:39:09;;;;;;;5.30;4.47;;;19.80;79.80;;;;;;5011252;28;20648;-70
2022/07/28 05:41:36;;;;;;;6.07;3.30;;;19.90;79.10;;;;;;5004129;28;20231;-69
2022/07/28 05:44:02;;;;;;;3.67;3.38;;;19.70;79.80;;;;;;5000728;28;20209;-70
2022/07/28 05:46:27;;;;;;;6.83;4.50;;;19.90;80.00;;;;;;5015471;28;20253;-70
2022/07/28 05:48:53;;;;;;;5.40;3.30;;;19.90;79.60;;;;;;5006597;28;20187;-73
2022/07/28 05:51:19;;;;;;;3.57;3.27;;;19.70;79.60;;;;;;4986422;28;20202;-70
2022/07/28 05:53:44;;;;;;;5.20;4.37;;;19.60;80.60;;;;;;5018302;28;20600;-70
2022/07/28 05:56:10;;;;;;;3.70;3.33;;;19.80;81.90;;;;;;5012038;28;20186;-70
2022/07/28 05:58:35;;;;;;;5.23;3.50;;;19.90;80.30;;;;;;5020079;28;20183;-72
2022/07/28 06:01:02;;;;;;;4.57;3.20;;;20.00;80.80;;;;;;5007164;28;20543;-70
2022/07/28 06:03:30;;;;;;;6.47;3.50;;;20.10;80.00;;;;;;5012930;28;20183;-69
2022/07/28 06:05:56;;;;;;;7.50;3.67;;;20.30;79.80;;;;;;5010893;28;20187;-71
2022/07/28 06:08:25;;;;;;;7.83;3.50;;;20.50;79.50;;;;;;5016949;28;20577;-70
2022/07/28 06:10:58;;;;;;;21.30;4.40;;;20.40;79.00;;;;;;5018435;28;20519;-70
2022/07/28 06:13:23;;;;;;;3.97;3.58;;;20.90;80.20;;;;;;4998516;28;20221;-69
2022/07/28 06:15:51;;;;;;;4.00;3.53;;;20.60;78.80;;;;;;5014519;28;20210;-71
2022/07/28 06:18:21;;;;;;;4.78;3.50;;;20.60;78.60;;;;;;5010603;28;20203;-72
2022/07/28 06:20:47;;;;;;;5.05;4.13;;;20.60;78.80;;;;;;5009164;28;20265;-70
2022/07/28 06:23:20;;;;;;;6.57;4.57;;;20.70;78.70;;;;;;4984792;28;20191;-73
2022/07/28 06:25:46;;;;;;;4.60;3.88;;;20.60;78.70;;;;;;5009733;28;20549;-74
2022/07/28 06:28:12;;;;;;;3.30;3.10;;;20.70;78.90;;;;;;5008970;28;20207;-71
2022/07/28 06:30:38;;;;;;;3.83;3.40;;;20.80;79.00;;;;;;5001223;28;20264;-71
2022/07/28 06:33:04;;;;;;;7.20;4.70;;;20.60;79.80;;;;;;5009767;28;20468;-72
2022/07/28 06:35:31;;;;;;;5.25;3.90;;;20.40;79.40;;;;;;5005212;28;20645;-72
2022/07/28 06:37:57;;;;;;;7.45;5.10;;;20.80;79.60;;;;;;5008249;28;20209;-72
2022/07/28 06:40:22;;;;;;;6.73;4.53;;;20.80;79.70;;;;;;5009512;28;20683;-70
2022/07/28 06:42:49;;;;;;;6.37;4.23;;;20.90;79.70;;;;;;5009362;28;20190;-71
2022/07/28 06:45:15;;;;;;;4.18;3.88;;;21.00;79.60;;;;;;4991419;28;20183;-70
2022/07/28 06:47:41;;;;;;;7.15;4.30;;;21.10;79.70;;;;;;5009601;28;20206;-70
2022/07/28 06:50:08;;;;;;;4.83;4.23;;;21.10;79.60;;;;;;5007219;28;20208;-72
2022/07/28 06:52:34;;;;;;;5.90;4.55;;;21.20;79.30;;;;;;5000094;28;20655;-71
2022/07/28 06:55:00;;;;;;;7.63;4.55;;;21.60;79.60;;;;;;4991683;28;20186;-71
2022/07/28 06:57:26;;;;;;;8.03;4.73;;;21.60;79.40;;;;;;5009056;28;20198;-70
2022/07/28 06:59:52;;;;;;;5.47;5.07;;;21.20;78.50;;;;;;5008958;28;20425;-71
2022/07/28 07:02:18;;;;;;;5.27;4.73;;;21.70;78.60;;;;;;4996310;28;20180;-71
2022/07/28 07:04:44;;;;;;;4.70;4.30;;;21.70;78.60;;;;;;5007476;28;20551;-72
2022/07/28 07:07:10;;;;;;;5.25;4.80;;;21.60;78.60;;;;;;5009041;28;20351;-73
2022/07/28 07:09:36;;;;;;;5.40;4.90;;;21.70;78.90;;;;;;5009680;28;20269;-74
2022/07/28 07:12:02;;;;;;;6.13;5.20;;;22.10;79.00;;;;;;5009512;28;20210;-72
2022/07/28 07:14:28;;;;;;;5.37;4.80;;;22.80;77.80;;;;;;5008328;28;20536;-73
2022/07/28 07:16:53;;;;;;;5.60;4.70;;;23.80;74.50;;;;;;5009309;28;20553;-72
2022/07/28 07:19:20;;;;;;;5.40;4.90;;;25.60;69.50;;;;;;5008649;28;20543;-72
2022/07/28 07:21:46;;;;;;;5.03;4.63;;;27.20;63.80;;;;;;5004907;28;20650;-72
2022/07/28 07:24:12;;;;;;;5.50;5.10;;;29.30;58.40;;;;;;5009645;28;20445;-73
2022/07/28 07:26:38;;;;;;;6.30;4.90;;;30.40;55.00;;;;;;5008549;28;20768;-73
2022/07/28 07:29:05;;;;;;;4.87;4.40;;;33.10;51.60;;;;;;5009457;28;20210;-73
2022/07/28 07:31:32;;;;;;;5.30;4.80;;;33.60;48.90;;;;;;4984907;28;21019;-71
2022/07/28 07:33:58;;;;;;;4.97;4.57;;;34.90;45.70;;;;;;4990712;28;20437;-73
2022/07/28 07:36:23;;;;;;;6.07;5.57;;;36.40;43.70;;;;;;5008965;28;21211;-73
2022/07/28 07:38:49;;;;;;;5.97;5.07;;;35.40;42.00;;;;;;5008751;28;20510;-73
2022/07/28 07:41:15;;;;;;;5.27;4.90;;;34.70;43.20;;;;;;4992113;28;20210;-73
2022/07/28 07:43:41;;;;;;;5.23;4.80;;;33.90;44.90;;;;;;5009351;28;20182;-72
2022/07/28 07:46:06;;;;;;;5.73;4.60;;;36.30;42.60;;;;;;5006936;28;20235;-72
2022/07/28 07:48:32;;;;;;;5.97;5.57;;;37.00;41.30;;;;;;4991474;28;20195;-75
2022/07/28 07:50:57;;;;;;;5.53;5.00;;;37.70;39.20;;;;;;5009057;28;20210;-75
2022/07/28 07:53:23;;;;;;;5.90;5.43;;;38.20;39.10;;;;;;4991554;28;20193;-73
2022/07/28 07:55:50;;;;;;;7.03;6.50;;;39.20;37.70;;;;;;5008919;28;20200;-74
2022/07/28 07:58:15;;;;;;;10.03;5.73;;;38.60;37.60;;;;;;4991322;28;20293;-73
2022/07/28 08:00:41;;;;;;;5.90;5.47;;;39.80;36.20;;;;;;5007399;28;20963;-73
2022/07/28 08:03:06;;;;;;;5.67;5.17;;;38.30;37.00;;;;;;4992103;28;20186;-72
2022/07/28 08:05:32;;;;;;;5.90;5.50;;;36.60;39.30;;;;;;4991028;28;20180;-72
2022/07/28 08:07:58;;;;;;;6.03;5.40;;;36.80;38.60;;;;;;5009326;28;20198;-73
2022/07/28 08:10:23;;;;;;;6.50;5.93;;;35.90;39.90;;;;;;5013262;28;20202;-73
2022/07/28 08:12:49;;;;;;;6.10;5.50;;;36.20;40.30;;;;;;4992289;28;20238;-74
2022/07/28 08:15:15;;;;;;;6.00;5.50;;;35.60;40.80;;;;;;5008900;28;20229;-72
2022/07/28 08:17:40;;;;;;;5.77;5.27;;;35.70;40.00;;;;;;5008216;28;20195;-73
2022/07/28 08:20:07;;;;;;;6.20;5.70;;;36.30;40.60;;;;;;5011958;28;20179;-73
2022/07/28 08:22:32;;;;;;;5.83;5.33;;;37.80;39.00;;;;;;5004199;28;20297;-73
2022/07/28 08:25:01;;;;;;;7.10;6.50;;;37.90;38.20;;;;;;5012119;28;20438;-72
2022/07/28 08:27:26;;;;;;;6.43;5.90;;;37.60;37.90;;;;;;4994545;28;20543;-74
2022/07/28 08:29:52;;;;;;;6.00;5.50;;;39.20;36.90;;;;;;5012040;28;20465;-75
2022/07/28 08:32:18;;;;;;;5.80;5.30;;;37.70;36.10;;;;;;5012859;28;20433;-71
2022/07/28 08:34:44;;;;;;;5.80;5.27;;;38.70;37.20;;;;;;5012441;28;20254;-72
2022/07/28 08:37:09;;;;;;;5.90;5.30;;;39.80;35.90;;;;;;5006056;28;20213;-72
2022/07/28 08:39:35;;;;;;;6.20;5.70;;;40.90;34.80;;;;;;5013024;28;20421;-74
2022/07/28 08:42:27;;;;;;;6.43;6.00;;;40.80;34.40;;;;;;5012287;28;20179;-74
2022/07/28 08:44:59;;;;;;;8.50;7.70;;;40.20;34.50;;;;;;5011971;28;20476;-71
2022/07/28 08:47:26;;;;;;;8.97;6.27;;;36.60;37.80;;;;;;5012386;28;20926;-71
2022/07/28 08:49:54;;;;;;;10.03;6.90;;;36.30;38.10;;;;;;5012314;28;20434;-72
2022/07/28 08:52:21;;;;;;;6.90;6.30;;;37.10;39.60;;;;;;5012167;28;20533;-71
2022/07/28 08:54:48;;;;;;;6.90;6.40;;;38.00;37.80;;;;;;5012416;28;20425;-71
2022/07/28 08:57:29;;;;;;;6.40;5.57;;;38.10;37.40;;;;;;5011716;28;20458;-71
2022/07/28 08:59:55;;;;;;;5.93;5.47;;;38.20;38.30;;;;;;5011361;28;20430;-71
2022/07/28 09:02:25;;;;;;;10.00;7.80;;;37.40;38.60;;;;;;4993003;28;20453;-70
2022/07/28 09:04:53;;;;;;;6.67;6.00;;;37.20;39.40;;;;;;5004801;28;20823;-73
2022/07/28 09:07:19;;;;;;;7.20;6.50;;;38.50;38.60;;;;;;5009726;28;20828;-72
2022/07/28 09:09:47;;;;;;;6.60;6.03;;;38.20;36.80;;;;;;4994752;28;20433;-73
2022/07/28 09:12:13;;;;;;;7.50;6.70;;;36.70;39.70;;;;;;5011685;28;20262;-72
2022/07/28 09:14:39;;;;;;;7.10;6.50;;;36.90;39.70;;;;;;4988662;28;20557;-72
2022/07/28 09:17:04;;;;;;;7.40;5.80;;;37.50;39.10;;;;;;5011287;28;20242;-71
2022/07/28 09:19:30;;;;;;;7.20;6.60;;;38.10;38.40;;;;;;5009771;28;20183;-72
2022/07/28 09:21:56;;;;;;;6.73;6.23;;;37.20;38.30;;;;;;5010278;28;20270;-71
2022/07/28 09:24:35;;;;;;;7.23;6.53;;;36.10;40.50;;;;;;5011544;28;20270;-72
2022/07/28 09:27:12;;;;;;;7.47;6.70;;;35.00;42.40;;;;;;5005206;28;20589;-72
2022/07/28 09:29:40;;;;;;;6.40;6.00;;;35.30;41.80;;;;;;4993747;28;21157;-71
2022/07/28 09:32:07;;;;;;;7.23;6.63;;;36.20;41.30;;;;;;4999944;28;20491;-71
2022/07/28 09:34:45;;;;;;;7.00;6.17;;;36.80;40.70;;;;;;4993881;28;20495;-71
2022/07/28 09:37:22;;;;;;;6.57;6.10;;;36.90;40.80;;;;;;5001687;28;20453;-72
2022/07/28 09:39:49;;;;;;;6.90;5.90;;;37.30;39.80;;;;;;5011036;28;20516;-72
2022/07/28 09:42:17;;;;;;;6.67;5.90;;;36.90;40.10;;;;;;5011386;28;20458;-72
2022/07/28 09:44:42;;;;;;;6.67;6.20;;;37.20;39.70;;;;;;5003078;28;20794;-74
2022/07/28 09:47:25;;;;;;;7.07;6.47;;;37.60;39.00;;;;;;5011064;28;20448;-74
2022/07/28 09:49:51;;;;;;;6.37;5.87;;;36.90;39.40;;;;;;5011381;28;20314;-71
2022/07/28 09:52:30;;;;;;;6.50;6.00;;;36.80;40.40;;;;;;5003336;28;20556;-71
2022/07/28 09:55:00;;;;;;;7.20;6.60;;;37.20;39.80;;;;;;5011453;28;20185;-71
2022/07/28 09:57:30;;;;;;;6.37;5.80;;;36.70;40.60;;;;;;4992866;28;20454;-71
2022/07/28 09:59:56;;;;;;;9.13;8.37;;;36.30;41.10;;;;;;5010330;28;20959;-71
2022/07/28 10:02:28;;;;;;;7.93;6.37;;;36.10;41.30;;;;;;5005607;28;20429;-71
2022/07/28 10:04:54;;;;;;;6.50;6.10;;;36.50;40.80;;;;;;4993381;28;20434;-71
2022/07/28 10:07:20;;;;;;;7.00;6.50;;;36.50;41.00;;;;;;5003723;28;20511;-71
2022/07/28 10:09:56;;;;;;;7.30;6.40;;;36.80;40.10;;;;;;4992828;28;20438;-72
2022/07/28 10:12:26;;;;;;;6.70;6.00;;;37.20;40.30;;;;;;5008090;28;20417;-70
2022/07/28 10:14:58;;;;;;;8.17;7.37;;;36.90;40.30;;;;;;5009484;28;21044;-71
2022/07/28 10:17:28;;;;;;;7.17;6.67;;;36.80;40.10;;;;;;5010037;28;20536;-74
2022/07/28 10:19:57;;;;;;;7.00;6.50;;;36.30;40.50;;;;;;5009969;28;20428;-74
2022/07/28 10:22:26;;;;;;;6.93;6.33;;;35.30;42.30;;;;;;4997341;28;20570;-74
2022/07/28 10:24:53;;;;;;;6.43;5.83;;;34.60;43.20;;;;;;4996673;28;20451;-73
2022/07/28 10:27:20;;;;;;;7.67;6.93;;;33.60;44.60;;;;;;4989645;28;20473;-71
2022/07/28 10:29:53;;;;;;;8.63;6.70;;;32.50;46.30;;;;;;5006372;28;20481;-71
2022/07/28 10:32:19;;;;;;;7.20;6.60;;;31.50;48.60;;;;;;5010022;28;20432;-72
2022/07/28 10:35:04;;;;;;;6.00;5.60;;;31.30;49.60;;;;;;5010412;28;20431;-72
2022/07/28 10:37:32;;;;;;;6.80;6.30;;;31.10;50.50;;;;;;5009565;28;20506;-71
2022/07/28 10:40:06;;;;;;;7.10;6.57;;;30.90;50.50;;;;;;5009867;28;20421;-72
2022/07/28 10:42:32;;;;;;;8.33;7.20;;;30.60;51.10;;;;;;5010540;28;20492;-71
2022/07/28 10:44:58;;;;;;;6.57;6.07;;;30.00;51.70;;;;;;5005176;28;20872;-71
2022/07/28 10:47:26;;;;;;;7.10;6.50;;;29.70;52.90;;;;;;4991943;28;20966;-72
2022/07/28 10:49:52;;;;;;;7.93;7.07;;;29.70;53.40;;;;;;4988873;28;20478;-72
2022/07/28 10:52:18;;;;;;;7.27;6.60;;;29.90;53.00;;;;;;5006097;28;20442;-71
2022/07/28 10:55:04;;;;;;;6.10;5.60;;;29.90;53.70;;;;;;5010318;28;20439;-72
2022/07/28 10:57:31;;;;;;;6.27;5.70;;;29.70;53.70;;;;;;4978896;28;20463;-72
2022/07/28 11:00:03;;;;;;;5.97;5.47;;;29.60;52.80;;;;;;5004905;28;21016;-73
2022/07/28 11:02:57;;;;;;;6.43;5.93;;;29.90;53.10;;;;;;5009419;28;20452;-73
2022/07/28 11:05:25;;;;;;;6.77;6.20;;;30.00;53.30;;;;;;5003922;28;20524;-72
2022/07/28 11:07:51;;;;;;;6.77;6.27;;;30.30;53.40;;;;;;5004017;28;20477;-72
2022/07/28 11:10:19;;;;;;;5.97;5.57;;;30.30;52.10;;;;;;5004578;28;20465;-71
2022/07/28 11:12:50;;;;;;;5.50;5.10;;;30.40;52.10;;;;;;4991778;28;20569;-72
2022/07/28 11:15:25;;;;;;;6.47;6.07;;;30.80;51.30;;;;;;5005298;28;20492;-73
2022/07/28 11:17:59;;;;;;;6.80;6.20;;;31.30;50.90;;;;;;5009476;28;20542;-72
2022/07/28 11:20:53;;;;;;;6.10;5.60;;;31.30;50.70;;;;;;5006364;28;20973;-72
2022/07/28 11:23:52;;;;;;;7.90;7.30;;;32.30;49.20;;;;;;5004957;28;20429;-73
2022/07/28 11:26:21;;;;;;;5.97;5.57;;;31.70;49.20;;;;;;4991719;28;20427;-71
2022/07/28 11:28:59;;;;;;;6.37;5.87;;;32.20;48.20;;;;;;5004914;28;20472;-74
2022/07/28 11:31:43;;;;;;;6.47;6.03;;;32.20;48.40;;;;;;5009191;28;20465;-73
2022/07/28 11:34:12;;;;;;;5.90;5.50;;;31.70;48.50;;;;;;5002021;28;20430;-72
2022/07/28 11:36:56;;;;;;;7.60;6.23;;;31.60;49.30;;;;;;5005037;28;20450;-72
2022/07/28 11:39:24;;;;;;;5.77;5.47;;;31.50;49.30;;;;;;4998167;28;20493;-71
2022/07/28 11:41:49;;;;;;;6.70;6.20;;;31.40;48.20;;;;;;5015562;28;20424;-73
2022/07/28 11:44:26;;;;;;;6.27;5.77;;;31.10;48.00;;;;;;5016521;28;20460;-72
2022/07/28 11:46:53;;;;;;;5.47;5.10;;;32.70;46.80;;;;;;5002959;28;20211;-71
2022/07/28 11:49:20;;;;;;;6.23;5.83;;;33.30;44.90;;;;;;4997372;28;20441;-73
2022/07/28 11:52:09;;;;;;;7.10;5.63;;;33.40;45.40;;;;;;5010480;28;20469;-73
2022/07/28 11:54:35;;;;;;;5.40;5.00;;;33.20;45.40;;;;;;5014635;28;21025;-72
2022/07/28 11:57:03;;;;;;;6.57;5.33;;;33.70;43.80;;;;;;5015447;28;20942;-72
2022/07/28 11:59:39;;;;;;;5.93;5.07;;;34.30;43.90;;;;;;5016194;28;20448;-74
2022/07/28 12:02:05;;;;;;;6.33;5.70;;;33.80;44.20;;;;;;5015731;28;20511;-72
2022/07/28 12:04:31;;;;;;;5.67;5.27;;;32.90;45.20;;;;;;5015868;28;20945;-75
2022/07/28 12:06:57;;;;;;;6.07;5.57;;;32.70;45.60;;;;;;5012547;28;20275;-75
2022/07/28 12:09:29;;;;;;;5.37;5.07;;;32.30;45.40;;;;;;5015907;28;20850;-72
2022/07/28 12:11:55;;;;;;;5.70;4.90;;;31.60;46.20;;;;;;5016653;28;20244;-71
2022/07/28 12:14:21;;;;;;;5.30;4.80;;;31.20;47.60;;;;;;4998648;28;20981;-72
2022/07/28 12:16:50;;;;;;;5.03;4.53;;;31.80;47.50;;;;;;5006999;28;20203;-71
2022/07/28 12:19:19;;;;;;;5.97;5.57;;;31.10;46.70;;;;;;5015388;28;20427;-72
2022/07/28 12:21:46;;;;;;;4.90;4.50;;;31.00;46.20;;;;;;4989087;28;20453;-71
2022/07/28 12:24:16;;;;;;;6.00;5.20;;;31.00;46.60;;;;;;5015818;28;20528;-74
2022/07/28 12:26:42;;;;;;;5.40;5.00;;;30.90;46.80;;;;;;5015674;28;20946;-70
2022/07/28 12:29:12;;;;;;;5.57;5.17;;;30.50;47.50;;;;;;5015144;28;20450;-71
2022/07/28 12:31:38;;;;;;;4.87;4.50;;;30.60;47.60;;;;;;5013890;28;20461;-70
2022/07/28 12:34:10;;;;;;;5.77;5.20;;;30.50;47.90;;;;;;5015594;28;20951;-70
2022/07/28 12:36:37;;;;;;;5.13;4.83;;;30.40;48.20;;;;;;5006945;28;20276;-70
2022/07/28 12:39:08;;;;;;;4.60;4.30;;;30.50;48.20;;;;;;4998109;28;20455;-73
2022/07/28 12:41:36;;;;;;;5.00;4.60;;;30.80;48.10;;;;;;5015619;28;20448;-71
2022/07/28 12:44:03;;;;;;;5.73;5.23;;;30.80;46.90;;;;;;5008693;28;20444;-72
2022/07/28 12:46:31;;;;;;;5.10;4.70;;;30.90;47.00;;;;;;5015719;28;20826;-71
2022/07/28 12:48:58;;;;;;;5.37;4.90;;;31.10;46.50;;;;;;5015031;28;20460;-71
2022/07/28 12:51:39;;;;;;;5.07;4.67;;;31.00;46.10;;;;;;5008956;28;20560;-71
2022/07/28 12:54:10;;;;;;;4.73;4.23;;;31.10;46.20;;;;;;5012149;28;20903;-71